Terminal Aerodrome Forecast
Issued by NWS

Home | Current Version | Previous Version | Text Only | Print | Product List | Glossary On
Versions: 1 2 3 4 5 6 7 8 9 10 11 12 13 14
000
FTUS45 KTFX 190500
TAFBZN
TAF
KBZN 190520Z 1906/2006 15005KT P6SM SCT090 BKN150
     FM192000 28008KT P6SM SCT080 BKN150
     FM200200 15005KT P6SM SCT150=

USA.gov is the U.S. government's official web portal to all federal, state and local government web resources and services.